createdAt,value
2018-02-10T00:00:43.217Z,17.80
2018-02-10T00:05:46.292Z,18.10
2018-02-10T00:10:49.791Z,16.70
2018-02-10T00:15:53.692Z,17.87
2018-02-10T00:20:57.910Z,18.10
2018-02-10T00:26:02.371Z,18.42
2018-02-10T00:31:06.639Z,17.10
2018-02-10T00:36:11.115Z,16.70
2018-02-10T00:41:15.285Z,18.33
2018-02-10T00:46:18.804Z,18.43
2018-02-10T00:51:23.254Z,17.70
2018-02-10T00:56:27.165Z,17.33
2018-02-10T01:01:31.403Z,16.63
2018-02-10T01:06:34.925Z,18.40
2018-02-10T01:11:39.163Z,18.27
2018-02-10T01:16:43.083Z,19.20
2018-02-10T01:21:46.931Z,18.23
2018-02-10T01:26:50.831Z,18.50
2018-02-10T01:31:55.087Z,18.57
2018-02-10T01:36:58.952Z,19.47
2018-02-10T01:42:02.422Z,19.47
2018-02-10T01:47:05.891Z,20.83
2018-02-10T01:52:10.331Z,22.33
2018-02-10T01:57:14.800Z,23.13
2018-02-10T02:02:18.259Z,22.23
2018-02-10T02:07:22.737Z,24.17
2018-02-10T02:12:26.212Z,25.70
2018-02-10T02:17:29.330Z,25.17
2018-02-10T02:22:32.415Z,25.03
2018-02-10T02:27:37.105Z,24.00
2018-02-10T02:32:40.191Z,26.03
2018-02-10T02:37:44.087Z,25.07
2018-02-10T02:42:48.526Z,26.03
2018-02-10T02:47:52.435Z,25.73
2018-02-10T02:52:57.025Z,25.60
2018-02-10T02:58:00.155Z,23.70
2018-02-10T03:03:03.639Z,25.97
2018-02-10T03:08:07.515Z,26.80
2018-02-10T03:13:11.355Z,25.47
2018-02-10T03:18:14.484Z,28.10
2018-02-10T03:23:19.082Z,27.87
2018-02-10T03:28:22.175Z,26.03
2018-02-10T03:33:26.614Z,25.70
2018-02-10T03:38:29.714Z,25.50
2018-02-10T03:43:32.865Z,25.80
2018-02-10T03:48:35.959Z,27.13
2018-02-10T03:53:39.803Z,25.60
2018-02-10T03:58:42.921Z,27.57
2018-02-10T04:03:46.007Z,26.60
2018-02-10T04:08:50.641Z,24.07
2018-02-10T04:13:54.507Z,25.67
2018-02-10T04:18:57.595Z,23.63
2018-02-10T04:24:02.426Z,23.93
2018-02-10T04:29:07.076Z,24.53
2018-02-10T04:34:10.591Z,24.47
2018-02-10T04:39:15.039Z,23.70
2018-02-10T04:44:18.547Z,25.57
2018-02-10T04:49:22.416Z,24.67
2018-02-10T04:54:25.499Z,24.20
2018-02-10T04:59:28.627Z,25.57
2018-02-10T05:04:31.734Z,25.90
2018-02-10T05:09:35.255Z,24.73
2018-02-10T05:14:39.687Z,24.57
2018-02-10T05:19:44.171Z,23.63
2018-02-10T05:24:48.753Z,22.80
2018-02-10T05:29:52.196Z,23.33
2018-02-10T05:34:55.683Z,24.53
2018-02-10T05:40:00.141Z,23.07
2018-02-10T05:45:03.659Z,23.80
2018-02-10T05:50:06.759Z,24.87
2018-02-10T05:55:10.652Z,24.00
2018-02-10T06:00:15.100Z,20.57
2018-02-10T06:05:18.982Z,24.93
2018-02-10T06:10:23.449Z,23.67
2018-02-10T06:15:26.928Z,22.67
2018-02-10T06:20:30.815Z,24.53
2018-02-10T06:25:35.299Z,23.70
2018-02-10T06:30:39.929Z,23.57
2018-02-10T06:35:43.815Z,22.23
2018-02-10T06:40:47.120Z,24.53
2018-02-10T06:45:50.995Z,23.83
2018-02-10T06:50:54.883Z,24.97
2018-02-10T06:55:57.988Z,24.03
2018-02-10T07:01:01.127Z,24.17
2018-02-10T07:06:04.211Z,23.10
2018-02-10T07:11:09.429Z,22.70
2018-02-10T07:16:13.301Z,21.60
2018-02-10T07:21:17.848Z,21.70
2018-02-10T07:26:22.435Z,23.93
2018-02-10T07:31:26.867Z,23.00
2018-02-10T07:36:30.356Z,24.27
2018-02-10T07:41:33.463Z,24.67
2018-02-10T07:46:37.063Z,23.80
2018-02-10T07:51:40.168Z,22.27
2018-02-10T07:56:43.257Z,21.85
2018-02-10T08:01:47.738Z,29.03
2018-02-10T08:06:51.648Z,20.63
2018-02-10T08:11:55.545Z,22.00
2018-02-10T08:16:59.805Z,24.10
2018-02-10T08:22:04.811Z,22.00
2018-02-10T08:27:09.473Z,23.33
2018-02-10T08:32:13.923Z,28.70
2018-02-10T08:37:17.016Z,24.00
2018-02-10T08:42:20.887Z,22.00
2018-02-10T08:47:24.412Z,20.90
2018-02-10T08:52:28.851Z,21.70
2018-02-10T08:57:32.844Z,20.02
2018-02-10T09:02:36.688Z,19.13
2018-02-10T09:07:41.317Z,20.37
2018-02-10T09:12:45.760Z,19.33
2018-02-10T09:17:49.279Z,17.90
2018-02-10T09:22:54.292Z,17.33
2018-02-10T09:27:57.845Z,17.03
2018-02-10T09:33:02.316Z,16.70
2018-02-10T09:38:06.795Z,18.20
2018-02-10T09:43:11.041Z,15.00
2018-02-10T09:48:15.654Z,15.98
2018-02-10T09:53:19.877Z,14.87
2018-02-10T09:58:23.357Z,15.40
2018-02-10T10:03:27.867Z,14.50
2018-02-10T10:08:31.715Z,14.17
2018-02-10T10:13:35.574Z,13.80
2018-02-10T10:18:38.704Z,13.10
2018-02-10T10:23:41.794Z,13.80
2018-02-10T10:28:44.963Z,13.67
2018-02-10T10:33:49.403Z,15.23
2018-02-10T10:38:52.898Z,13.27
2018-02-10T10:43:57.344Z,13.47
2018-02-10T10:49:00.874Z,15.20
2018-02-10T10:54:05.344Z,13.27
2018-02-10T10:59:09.015Z,13.53
2018-02-10T11:04:12.993Z,12.93
2018-02-10T11:09:16.855Z,13.87
2018-02-10T11:14:21.282Z,12.27
2018-02-10T11:19:25.168Z,13.23
2018-02-10T11:24:29.654Z,12.40
2018-02-10T11:29:33.528Z,13.03
2018-02-10T11:34:36.612Z,13.33
2018-02-10T11:39:41.059Z,12.30
2018-02-10T11:44:44.567Z,13.80
2018-02-10T11:49:47.656Z,12.40
2018-02-10T11:54:52.115Z,11.33
2018-02-10T11:59:55.595Z,11.40
2018-02-10T12:04:59.812Z,11.70
2018-02-10T12:10:02.968Z,10.70
2018-02-10T12:15:06.835Z,10.20
2018-02-10T12:20:09.935Z,11.73
2018-02-10T12:25:13.412Z,9.83
2018-02-10T12:30:16.927Z,12.37
2018-02-10T12:35:21.165Z,12.90
2018-02-10T12:40:25.019Z,13.10
2018-02-10T12:45:28.096Z,12.50
2018-02-10T12:50:31.631Z,12.80
2018-02-10T12:55:35.125Z,11.40
2018-02-10T13:00:39.587Z,11.90
2018-02-10T13:05:42.699Z,11.03
2018-02-10T13:10:47.333Z,13.87
2018-02-10T13:15:51.765Z,13.93
2018-02-10T13:20:55.260Z,12.83
2018-02-10T13:25:59.510Z,13.60
2018-02-10T13:31:03.351Z,11.27
2018-02-10T13:36:07.791Z,10.52
2018-02-10T13:41:12.263Z,8.10
2018-02-10T13:46:16.694Z,9.40
2018-02-10T13:51:20.524Z,7.53
2018-02-10T13:56:23.599Z,8.63
2018-02-10T14:01:27.165Z,16.57
2018-02-10T14:06:30.676Z,8.57
2018-02-10T14:11:35.334Z,7.30
2018-02-10T14:16:39.605Z,7.87
2018-02-10T14:21:43.075Z,8.83
2018-02-10T14:26:47.587Z,7.73
2018-02-10T14:31:51.442Z,8.17
2018-02-10T14:36:55.923Z,15.33
2018-02-10T14:42:00.502Z,7.93
2018-02-10T14:47:04.244Z,8.07
2018-02-10T14:52:08.682Z,7.33
2018-02-10T14:57:13.163Z,7.50
2018-02-10T15:02:17.339Z,8.83
2018-02-10T15:07:21.795Z,7.77
2018-02-10T15:12:26.231Z,9.30
2018-02-10T15:17:30.725Z,12.43
2018-02-10T15:22:34.263Z,13.97
2018-02-10T15:27:37.736Z,15.10
2018-02-10T15:32:59.519Z,14.87
2018-02-10T15:38:02.606Z,15.27
2018-02-10T15:43:07.035Z,15.80
2018-02-10T15:48:11.641Z,14.85
2018-02-10T15:53:15.863Z,15.93
2018-02-10T15:58:19.725Z,15.13
2018-02-10T16:03:24.165Z,15.10
2018-02-10T16:08:28.602Z,15.17
2018-02-10T16:13:32.825Z,14.37
2018-02-10T16:18:37.611Z,14.87
2018-02-10T16:23:41.837Z,15.87
2018-02-10T16:28:46.058Z,14.40
2018-02-10T16:33:50.512Z,14.53
2018-02-10T16:38:55.104Z,14.30
2018-02-10T16:43:58.182Z,13.70
2018-02-10T16:49:01.304Z,13.37
2018-02-10T16:54:05.743Z,13.03
2018-02-10T16:59:10.166Z,13.10
2018-02-10T17:04:14.774Z,13.93
2018-02-10T17:09:18.257Z,14.30
2018-02-10T17:14:22.141Z,14.77
2018-02-10T17:19:25.951Z,14.73
2018-02-10T17:24:29.059Z,14.60
2018-02-10T17:29:33.496Z,16.03
2018-02-10T17:34:38.079Z,16.50
2018-02-10T17:39:41.161Z,17.87
2018-02-10T17:44:45.594Z,16.90
2018-02-10T17:49:48.678Z,16.67
2018-02-10T17:54:53.172Z,16.97
2018-02-10T17:59:56.663Z,21.27
2018-02-10T18:05:01.112Z,21.67
2018-02-10T18:10:05.698Z,18.50
2018-02-10T18:15:08.783Z,17.57
2018-02-10T18:20:12.631Z,19.07
2018-02-10T18:25:15.719Z,23.13
2018-02-10T18:30:18.826Z,21.30
2018-02-10T18:35:21.907Z,21.73
2018-02-10T18:40:24.988Z,18.83
2018-02-10T18:45:29.585Z,18.73
2018-02-10T18:50:32.680Z,17.92
2018-02-10T18:55:35.763Z,17.30
2018-02-10T19:00:39.604Z,18.67
2018-02-10T19:05:42.733Z,15.63
2018-02-10T19:10:45.811Z,19.17
2018-02-10T19:15:50.244Z,11.43
2018-02-10T19:20:53.737Z,11.27
2018-02-10T19:25:56.811Z,11.30
2018-02-10T19:31:01.271Z,11.93
2018-02-10T19:36:05.483Z,15.03
2018-02-10T19:41:08.966Z,12.27
2018-02-10T19:46:12.800Z,10.67
2018-02-10T19:51:15.876Z,8.43
2018-02-10T19:56:19.512Z,7.80
2018-02-10T20:01:23.002Z,6.43
2018-02-10T20:06:26.976Z,6.33
2018-02-10T20:11:30.067Z,5.77
2018-02-10T20:16:33.904Z,6.13
2018-02-10T20:21:36.981Z,6.00
2018-02-10T20:26:40.115Z,6.20
2018-02-10T20:31:43.892Z,6.13
2018-02-10T20:36:48.165Z,6.17
2018-02-10T20:41:51.258Z,6.70
2018-02-10T20:46:55.689Z,6.53
2018-02-10T20:52:00.324Z,6.63
2018-02-10T20:57:05.870Z,5.67
2018-02-10T21:02:09.755Z,5.93
2018-02-10T21:07:12.895Z,5.93
2018-02-10T21:12:17.553Z,5.23
2018-02-10T21:17:22.050Z,5.60
2018-02-10T21:22:26.639Z,5.50
2018-02-10T21:27:30.872Z,4.87
2018-02-10T21:32:35.313Z,5.00
2018-02-10T21:37:39.956Z,4.67
2018-02-10T21:42:44.398Z,4.60
2018-02-10T21:47:48.306Z,5.53
2018-02-10T21:52:52.150Z,5.10
2018-02-10T21:57:56.787Z,4.90
2018-02-10T22:03:01.272Z,5.87
2018-02-10T22:08:05.500Z,5.93
2018-02-10T22:13:09.011Z,6.10
2018-02-10T22:18:12.088Z,4.83
2018-02-10T22:23:16.547Z,5.87
2018-02-10T22:28:21.140Z,5.93
2018-02-10T22:33:24.244Z,5.50
2018-02-10T22:38:28.095Z,5.77
2018-02-10T22:43:31.611Z,5.50
2018-02-10T22:48:35.193Z,5.25
2018-02-10T22:53:38.647Z,5.60
2018-02-10T22:58:42.143Z,5.37
2018-02-10T23:03:45.251Z,5.20
2018-02-10T23:08:49.678Z,4.63
2018-02-10T23:13:53.942Z,5.83
2018-02-10T23:18:58.151Z,6.70
2018-02-10T23:24:02.401Z,6.63
2018-02-10T23:29:06.240Z,6.70
2018-02-10T23:34:10.715Z,6.30
2018-02-10T23:39:15.140Z,6.20
2018-02-10T23:44:19.397Z,5.90
2018-02-10T23:49:23.831Z,6.07
2018-02-10T23:54:28.433Z,6.03
2018-02-10T23:59:32.868Z,5.70
